Time;durP1;ratioP1;P1;durP2;ratioP2;P2;SDS_P1;SDS_P2;PMS_P1;PMS_P2;Temp;Humidity;BMP_temperature;BMP_pressure;BME280_temperature;BME280_humidity;BME280_pressure;Samples;Min_cycle;Max_cycle;Signal;HPM_P1;HPM_P2
2020/12/01 00:02:26;;;;;;;15.23;8.07;;;1.10;99.90;;;;;;5044217;28;20197;-65
2020/12/01 00:04:52;;;;;;;4.82;1.95;;;1.10;99.90;;;;;;5040333;28;20255;-65
2020/12/01 00:07:18;;;;;;;16.60;10.30;;;1.10;99.90;;;;;;5039753;28;20213;-63
2020/12/01 00:09:44;;;;;;;17.90;8.30;;;1.10;99.90;;;;;;5033067;28;20468;-63
2020/12/01 00:12:10;;;;;;;5.97;4.72;;;1.10;99.90;;;;;;5029804;28;20728;-63
2020/12/01 00:14:35;;;;;;;10.67;5.70;;;1.20;99.90;;;;;;5035586;28;20194;-63
2020/12/01 00:17:01;;;;;;;32.53;19.13;;;1.10;99.90;;;;;;5042575;28;20440;-63
2020/12/01 00:19:27;;;;;;;2.00;0.73;;;1.10;99.90;;;;;;5034317;28;20206;-64
2020/12/01 00:21:53;;;;;;;1.80;0.40;;;1.10;99.90;;;;;;5034671;28;20240;-63
2020/12/01 00:24:19;;;;;;;10.43;4.03;;;1.10;99.90;;;;;;5037541;28;20212;-64
2020/12/01 00:26:44;;;;;;;1.70;0.20;;;1.10;99.90;;;;;;5034284;28;20265;-64
2020/12/01 00:29:10;;;;;;;21.57;13.43;;;1.20;99.90;;;;;;5036914;28;20430;-63
2020/12/01 00:31:41;;;;;;;26.97;15.00;;;1.20;99.90;;;;;;5040760;28;20190;-64
2020/12/01 00:34:15;;;;;;;20.58;11.82;;;1.20;99.90;;;;;;5053357;28;20436;-64
2020/12/01 00:36:41;;;;;;;10.30;5.90;;;1.20;99.90;;;;;;5043221;28;20178;-64
2020/12/01 00:39:08;;;;;;;2.28;0.88;;;1.10;99.90;;;;;;5049887;28;20240;-64
2020/12/01 00:41:35;;;;;;;2.10;1.33;;;1.20;99.90;;;;;;5050463;28;20193;-65
2020/12/01 00:44:00;;;;;;;31.00;19.00;;;1.20;99.90;;;;;;5044343;28;20733;-63
2020/12/01 00:46:28;;;;;;;1.70;0.20;;;1.20;99.90;;;;;;5037210;28;20214;-63
2020/12/01 00:48:53;;;;;;;2.88;1.23;;;1.20;99.90;;;;;;5034955;28;20213;-64
2020/12/01 00:51:19;;;;;;;11.20;10.17;;;1.30;99.90;;;;;;5035700;28;20645;-64
2020/12/01 00:53:45;;;;;;;26.83;14.33;;;1.30;99.90;;;;;;5035393;28;20186;-64
2020/12/01 00:56:11;;;;;;;3.50;1.23;;;1.30;99.90;;;;;;5034014;28;20186;-64
2020/12/01 00:58:37;;;;;;;12.82;6.72;;;1.30;99.90;;;;;;5035869;28;20210;-64
2020/12/01 01:01:04;;;;;;;21.60;13.07;;;1.30;99.90;;;;;;5038363;28;20254;-64
2020/12/01 01:03:29;;;;;;;7.90;7.25;;;1.40;99.90;;;;;;5042916;28;20450;-65
2020/12/01 01:05:55;;;;;;;15.40;9.47;;;1.40;99.90;;;;;;5046909;28;20186;-64
2020/12/01 01:08:21;;;;;;;8.90;6.27;;;1.40;99.90;;;;;;5049884;28;20422;-64
2020/12/01 01:10:47;;;;;;;2.87;1.50;;;1.40;99.90;;;;;;5043545;28;20230;-64
2020/12/01 01:13:13;;;;;;;19.67;11.18;;;1.40;99.90;;;;;;5035460;28;20255;-64
2020/12/01 01:15:39;;;;;;;3.65;1.73;;;1.40;99.90;;;;;;5036959;28;20178;-64
2020/12/01 01:18:05;;;;;;;1.70;0.20;;;1.40;99.90;;;;;;5036857;28;20755;-64
2020/12/01 01:20:31;;;;;;;19.97;11.13;;;1.40;99.90;;;;;;5036067;28;20791;-64
2020/12/01 01:22:57;;;;;;;11.37;5.10;;;1.40;99.90;;;;;;5036151;28;20538;-65
2020/12/01 01:25:23;;;;;;;8.85;6.43;;;1.40;99.90;;;;;;5033202;28;20417;-64
2020/12/01 01:27:49;;;;;;;1.90;0.43;;;1.40;99.90;;;;;;5039578;28;20181;-65
2020/12/01 01:30:20;;;;;;;1.75;0.50;;;1.40;99.90;;;;;;5039414;28;20912;-65
2020/12/01 01:32:46;;;;;;;5.20;2.92;;;1.40;99.90;;;;;;5039966;28;20186;-65
2020/12/01 01:35:13;;;;;;;1.90;0.60;;;1.50;99.90;;;;;;5037684;28;20220;-64
2020/12/01 01:37:38;;;;;;;16.65;10.45;;;1.50;99.90;;;;;;5038113;28;20493;-65
2020/12/01 01:40:05;;;;;;;14.97;9.77;;;1.50;99.90;;;;;;5035605;28;20202;-64
2020/12/01 01:42:31;;;;;;;5.10;1.15;;;1.50;99.90;;;;;;5036742;28;20222;-65
2020/12/01 01:44:57;;;;;;;7.50;4.33;;;1.50;99.90;;;;;;5036830;28;20895;-65
2020/12/01 01:47:26;;;;;;;17.97;8.90;;;1.50;99.90;;;;;;5047444;28;20182;-65
2020/12/01 01:50:14;;;;;;;24.33;11.50;;;1.50;99.90;;;;;;5032025;28;20224;-65
2020/12/01 01:52:43;;;;;;;11.60;6.00;;;1.50;99.90;;;;;;5031139;28;20649;-65
2020/12/01 01:55:17;;;;;;;5.03;2.92;;;1.40;99.90;;;;;;5035630;28;20181;-65
2020/12/01 01:57:47;;;;;;;17.17;10.20;;;1.50;99.90;;;;;;5034440;28;20251;-65
2020/12/01 02:00:40;;;;;;;28.33;18.95;;;1.50;99.90;;;;;;5035734;28;20297;-64
2020/12/01 02:03:06;;;;;;;1.77;0.30;;;1.50;99.90;;;;;;5034895;28;20611;-64
2020/12/01 02:05:32;;;;;;;1.70;0.20;;;1.50;99.90;;;;;;5039294;28;20193;-65
2020/12/01 02:07:57;;;;;;;14.87;5.93;;;1.50;99.90;;;;;;5038957;28;20175;-65
2020/12/01 02:10:23;;;;;;;1.80;0.20;;;1.60;99.90;;;;;;5038487;28;20202;-64
2020/12/01 02:12:53;;;;;;;17.90;10.52;;;1.50;99.90;;;;;;5039712;28;20186;-64
2020/12/01 02:15:19;;;;;;;6.25;3.70;;;1.60;99.90;;;;;;5035377;28;21659;-65
2020/12/01 02:17:45;;;;;;;16.50;7.85;;;1.50;99.90;;;;;;5039321;28;20295;-65
2020/12/01 02:20:19;;;;;;;6.70;3.40;;;1.50;99.90;;;;;;5036357;28;20213;-65
2020/12/01 02:22:51;;;;;;;20.77;12.88;;;1.50;99.90;;;;;;5041197;28;20519;-64
2020/12/01 02:25:19;;;;;;;7.22;6.82;;;1.50;99.90;;;;;;5034134;28;20735;-64
2020/12/01 02:27:50;;;;;;;12.77;8.23;;;1.50;99.90;;;;;;5045272;28;20181;-64
2020/12/01 02:30:16;;;;;;;12.88;6.95;;;1.50;99.90;;;;;;5044089;28;20201;-64
2020/12/01 02:32:42;;;;;;;16.53;9.83;;;1.40;99.90;;;;;;5028358;28;20748;-64
2020/12/01 02:35:10;;;;;;;1.90;0.70;;;1.40;99.90;;;;;;5041949;28;20431;-64
2020/12/01 02:37:38;;;;;;;17.10;10.43;;;1.40;99.90;;;;;;5032636;28;20243;-64
2020/12/01 02:40:14;;;;;;;9.05;6.80;;;1.40;99.90;;;;;;5035498;28;20273;-64
2020/12/01 02:42:41;;;;;;;1.70;0.20;;;1.40;99.90;;;;;;5036587;28;20213;-64
2020/12/01 02:45:08;;;;;;;18.38;9.75;;;1.40;99.90;;;;;;5036577;28;20206;-64
2020/12/01 02:47:33;;;;;;;31.38;19.23;;;1.40;99.90;;;;;;5036395;28;20170;-64
2020/12/01 02:49:59;;;;;;;5.60;3.30;;;1.40;99.90;;;;;;5038281;28;20267;-64
2020/12/01 02:52:25;;;;;;;3.57;3.00;;;1.40;99.90;;;;;;5035772;28;20433;-63
2020/12/01 02:54:51;;;;;;;3.40;1.43;;;1.40;99.90;;;;;;5035417;28;20561;-64
2020/12/01 02:57:20;;;;;;;29.95;17.90;;;1.40;99.90;;;;;;5039501;28;20182;-63
2020/12/01 02:59:45;;;;;;;14.32;8.65;;;1.40;99.90;;;;;;5035248;28;20222;-64
2020/12/01 03:02:11;;;;;;;13.57;7.67;;;1.40;99.90;;;;;;5038899;28;20185;-64
2020/12/01 03:04:37;;;;;;;1.70;0.20;;;1.40;99.90;;;;;;5039267;28;20255;-64
2020/12/01 03:07:03;;;;;;;1.70;0.20;;;1.40;99.90;;;;;;5051201;28;20241;-64
2020/12/01 03:09:28;;;;;;;6.03;4.67;;;1.40;99.90;;;;;;5052681;28;20746;-64
2020/12/01 03:11:54;;;;;;;7.13;6.43;;;1.50;99.90;;;;;;5052067;28;20438;-64
2020/12/01 03:14:22;;;;;;;9.50;6.30;;;1.50;99.90;;;;;;5068221;28;20190;-64
2020/12/01 03:16:49;;;;;;;2.97;1.45;;;1.50;99.90;;;;;;5056127;28;20211;-64
2020/12/01 03:19:15;;;;;;;1.70;0.20;;;1.50;99.90;;;;;;5054756;28;20269;-65
2020/12/01 03:21:41;;;;;;;1.70;0.20;;;1.50;99.90;;;;;;5046256;28;20185;-64
2020/12/01 03:24:07;;;;;;;1.77;0.20;;;1.50;99.90;;;;;;5040896;28;20368;-64
2020/12/01 03:26:32;;;;;;;1.70;0.20;;;1.50;99.90;;;;;;5042289;28;20431;-64
2020/12/01 03:28:58;;;;;;;6.50;3.50;;;1.50;99.90;;;;;;5044225;28;20271;-64
2020/12/01 03:31:24;;;;;;;12.80;7.33;;;1.60;99.90;;;;;;5044738;28;20193;-64
2020/12/01 03:33:49;;;;;;;13.23;7.53;;;1.50;99.90;;;;;;5040771;28;20200;-64
2020/12/01 03:36:17;;;;;;;1.70;0.20;;;1.60;99.90;;;;;;5043624;28;20189;-64
2020/12/01 03:38:43;;;;;;;1.70;0.20;;;1.50;99.90;;;;;;5041955;28;20201;-64
2020/12/01 03:41:09;;;;;;;15.40;9.93;;;1.60;99.90;;;;;;5040056;28;20564;-64
2020/12/01 03:43:35;;;;;;;9.77;4.80;;;1.50;99.90;;;;;;5042361;28;20205;-65
2020/12/01 03:46:02;;;;;;;21.87;10.27;;;1.50;99.90;;;;;;5042046;28;20174;-64
2020/12/01 03:48:29;;;;;;;5.72;1.70;;;1.50;99.90;;;;;;5041608;28;20244;-64
2020/12/01 03:50:54;;;;;;;10.20;7.05;;;1.50;99.90;;;;;;5040661;28;20178;-64
2020/12/01 03:53:20;;;;;;;6.90;5.03;;;1.50;99.90;;;;;;5039190;28;20190;-64
2020/12/01 03:55:46;;;;;;;10.03;5.30;;;1.40;99.90;;;;;;5054376;28;20440;-64
2020/12/01 03:58:12;;;;;;;18.33;9.80;;;1.40;99.90;;;;;;5040729;28;20824;-64
2020/12/01 04:00:38;;;;;;;14.17;7.57;;;1.40;99.90;;;;;;5039976;28;20428;-64
2020/12/01 04:03:03;;;;;;;1.90;0.60;;;1.40;99.90;;;;;;5041948;28;20257;-64
2020/12/01 04:05:29;;;;;;;5.47;4.10;;;1.40;99.90;;;;;;5043762;28;20268;-64
2020/12/01 04:07:56;;;;;;;6.03;3.60;;;1.40;99.90;;;;;;5050240;28;20170;-64
2020/12/01 04:10:24;;;;;;;2.28;1.25;;;1.40;99.90;;;;;;5040951;28;20233;-64
2020/12/01 04:12:50;;;;;;;11.63;5.88;;;1.40;99.90;;;;;;5040497;28;20683;-64
2020/12/01 04:15:17;;;;;;;4.35;1.90;;;1.50;99.90;;;;;;5042369;28;20321;-64
2020/12/01 04:17:43;;;;;;;20.00;9.05;;;1.50;99.90;;;;;;5041146;28;20202;-64
2020/12/01 04:20:09;;;;;;;1.70;0.30;;;1.40;99.90;;;;;;5042631;28;20360;-64
2020/12/01 04:22:35;;;;;;;9.20;6.78;;;1.40;99.90;;;;;;5041268;28;20551;-64
2020/12/01 04:25:04;;;;;;;7.63;3.42;;;1.40;99.90;;;;;;5042346;28;20275;-64
2020/12/01 04:27:30;;;;;;;4.78;2.33;;;1.50;99.90;;;;;;5040976;28;20209;-64
2020/12/01 04:29:55;;;;;;;8.13;4.30;;;1.50;99.90;;;;;;5038385;28;20198;-64
2020/12/01 04:32:21;;;;;;;7.13;2.97;;;1.50;99.90;;;;;;5043115;28;20190;-64
2020/12/01 04:34:47;;;;;;;7.97;3.67;;;1.50;99.90;;;;;;5040476;28;20202;-64
2020/12/01 04:37:13;;;;;;;10.03;6.77;;;1.60;99.90;;;;;;5040807;28;20680;-64
2020/12/01 04:39:38;;;;;;;1.90;0.60;;;1.60;99.90;;;;;;5040887;28;20270;-64
2020/12/01 04:42:06;;;;;;;10.27;2.77;;;1.60;99.90;;;;;;5040087;28;20628;-64
2020/12/01 04:44:44;;;;;;;1.90;0.40;;;1.60;99.90;;;;;;5038562;28;20225;-64
2020/12/01 04:47:20;;;;;;;15.45;6.60;;;1.60;99.90;;;;;;5044548;28;20633;-64
2020/12/01 04:49:54;;;;;;;1.70;0.30;;;1.60;99.90;;;;;;5041767;28;20205;-64
2020/12/01 04:52:25;;;;;;;1.70;0.20;;;1.60;99.90;;;;;;5043326;28;20178;-64
2020/12/01 04:55:28;;;;;;;4.47;2.85;;;1.70;99.90;;;;;;5041428;28;20178;-64
2020/12/01 04:58:20;;;;;;;2.00;1.05;;;1.70;99.90;;;;;;5034051;28;20189;-64
2020/12/01 05:01:10;;;;;;;3.45;1.35;;;1.70;99.90;;;;;;5035530;28;20289;-64
2020/12/01 05:04:06;;;;;;;1.77;0.20;;;1.70;99.90;;;;;;5036882;28;20281;-64
2020/12/01 05:09:29;;;;;;;1.80;0.73;;;1.70;99.90;;;;;;5044462;28;20206;-64
2020/12/01 05:12:01;;;;;;;5.97;5.00;;;1.70;99.90;;;;;;5044417;28;20170;-64
2020/12/01 05:14:34;;;;;;;1.75;0.20;;;1.70;99.90;;;;;;5045494;28;20189;-64
2020/12/01 05:17:15;;;;;;;1.70;0.20;;;1.70;99.90;;;;;;5041921;28;20253;-64
2020/12/01 05:19:48;;;;;;;9.00;6.43;;;1.70;99.90;;;;;;5028320;28;20209;-65
2020/12/01 05:22:17;;;;;;;1.70;0.20;;;1.70;99.90;;;;;;5040383;28;20186;-65
2020/12/01 05:24:51;;;;;;;20.65;14.48;;;1.70;99.90;;;;;;5047953;28;20267;-65
2020/12/01 05:27:34;;;;;;;1.90;0.60;;;1.70;99.90;;;;;;5047700;28;20188;-65
2020/12/01 05:30:06;;;;;;;3.97;1.65;;;1.70;99.90;;;;;;5044103;28;20216;-62
2020/12/01 05:32:38;;;;;;;1.70;0.20;;;1.70;99.90;;;;;;5038729;28;20297;-65
2020/12/01 05:35:21;;;;;;;1.75;0.20;;;1.80;99.90;;;;;;5038977;28;20186;-64
2020/12/01 05:38:15;;;;;;;13.98;7.13;;;1.80;99.90;;;;;;5039665;28;20182;-63
2020/12/01 05:40:50;;;;;;;3.28;1.60;;;1.70;99.90;;;;;;5040919;28;20194;-63
2020/12/01 05:43:30;;;;;;;1.70;0.20;;;1.70;99.90;;;;;;5038451;28;20201;-63
2020/12/01 05:46:47;;;;;;;14.88;9.73;;;1.80;99.90;;;;;;5038006;28;20251;-63
2020/12/01 05:49:36;;;;;;;10.63;7.32;;;1.80;99.90;;;;;;5025017;28;20289;-64
2020/12/01 05:52:25;;;;;;;4.03;2.40;;;1.80;99.90;;;;;;5038183;28;20232;-64
2020/12/01 05:55:11;;;;;;;7.93;4.63;;;1.80;99.90;;;;;;5034552;28;20222;-63
2020/12/01 05:57:37;;;;;;;13.20;8.35;;;1.80;99.90;;;;;;5040991;28;20213;-64
2020/12/01 06:00:20;;;;;;;9.23;4.90;;;1.80;99.90;;;;;;5036916;28;20198;-63
2020/12/01 06:03:12;;;;;;;11.10;6.00;;;1.80;99.90;;;;;;5036185;28;20308;-63
2020/12/01 06:05:41;;;;;;;7.50;5.53;;;1.80;99.90;;;;;;5037189;28;20190;-63
2020/12/01 06:08:25;;;;;;;12.75;8.82;;;1.80;99.90;;;;;;5034431;28;20182;-63
2020/12/01 06:11:12;;;;;;;17.40;11.73;;;1.80;99.90;;;;;;5037660;28;20201;-63
2020/12/01 06:13:45;;;;;;;12.20;8.57;;;1.80;99.90;;;;;;5036544;28;20209;-63
2020/12/01 06:16:34;;;;;;;2.53;0.82;;;1.80;99.90;;;;;;5035677;28;20178;-63
2020/12/01 06:19:24;;;;;;;16.90;12.15;;;1.80;99.90;;;;;;5030978;28;20218;-63
2020/12/01 06:22:02;;;;;;;1.70;0.20;;;1.90;99.90;;;;;;5035553;28;20204;-63
2020/12/01 06:24:49;;;;;;;1.80;0.30;;;1.90;99.90;;;;;;5035771;28;20201;-62
2020/12/01 06:27:26;;;;;;;15.35;10.10;;;2.00;99.90;;;;;;5029467;28;20185;-63
2020/12/01 06:30:12;;;;;;;1.70;0.20;;;2.00;99.90;;;;;;5022176;28;20538;-63
2020/12/01 06:32:56;;;;;;;6.03;3.50;;;2.00;99.90;;;;;;5032763;28;20213;-64
2020/12/01 06:36:06;;;;;;;6.88;4.63;;;2.00;99.90;;;;;;5032977;28;20181;-65
2020/12/01 06:39:09;;;;;;;14.90;4.90;;;2.00;99.90;;;;;;5031330;28;20557;-64
2020/12/01 06:41:43;;;;;;;1.70;0.20;;;2.00;99.90;;;;;;5033533;28;20182;-64
2020/12/01 06:44:14;;;;;;;1.70;0.20;;;2.00;99.90;;;;;;5034343;28;20673;-64
2020/12/01 06:46:43;;;;;;;1.80;0.40;;;2.00;99.90;;;;;;5034706;28;20247;-64
2020/12/01 06:49:14;;;;;;;1.75;0.30;;;2.00;99.90;;;;;;5034509;28;20227;-64
2020/12/01 06:51:40;;;;;;;1.70;0.20;;;2.00;99.90;;;;;;5034505;28;20197;-64
2020/12/01 06:54:14;;;;;;;1.70;0.20;;;2.00;99.90;;;;;;5035071;28;20243;-64
2020/12/01 06:56:40;;;;;;;1.70;0.20;;;2.00;99.90;;;;;;5033122;28;20189;-64
2020/12/01 06:59:09;;;;;;;4.63;1.70;;;2.10;99.90;;;;;;5034499;28;20210;-64
2020/12/01 07:01:36;;;;;;;1.80;0.30;;;2.10;99.90;;;;;;5032338;28;20210;-64
2020/12/01 07:04:13;;;;;;;7.07;3.33;;;2.00;99.90;;;;;;5036780;28;20217;-64
2020/12/01 07:06:46;;;;;;;2.20;0.93;;;2.00;99.90;;;;;;5033192;28;20186;-64
2020/12/01 07:09:19;;;;;;;10.70;5.53;;;2.00;99.90;;;;;;5033529;28;20675;-64
2020/12/01 07:12:03;;;;;;;7.05;3.50;;;2.00;99.90;;;;;;5033765;28;20232;-64
2020/12/01 07:14:34;;;;;;;1.70;0.20;;;2.10;99.90;;;;;;5035211;28;20181;-64
2020/12/01 07:17:00;;;;;;;1.73;0.20;;;2.10;99.90;;;;;;5042363;28;20182;-64
2020/12/01 07:19:44;;;;;;;5.10;3.00;;;2.10;99.90;;;;;;5033021;28;20221;-64
2020/12/01 07:22:54;;;;;;;4.32;1.88;;;2.20;99.90;;;;;;5033543;28;20197;-65
2020/12/01 07:25:43;;;;;;;11.88;8.48;;;2.20;99.90;;;;;;5028110;28;20218;-65
2020/12/01 07:28:35;;;;;;;1.90;0.55;;;2.10;99.90;;;;;;5031192;28;20206;-65
2020/12/01 07:31:15;;;;;;;1.70;0.20;;;2.20;99.90;;;;;;5036560;28;20182;-64
2020/12/01 07:33:53;;;;;;;10.68;7.35;;;2.20;99.90;;;;;;5041214;28;20181;-64
2020/12/01 07:36:27;;;;;;;1.70;0.20;;;2.20;99.90;;;;;;5031172;28;20442;-64
2020/12/01 07:39:27;;;;;;;1.70;0.20;;;2.20;99.90;;;;;;5031838;28;20213;-64
2020/12/01 07:42:04;;;;;;;1.80;0.30;;;2.20;99.90;;;;;;5027262;28;20715;-64
2020/12/01 07:44:40;;;;;;;7.03;4.05;;;2.30;99.90;;;;;;5034366;28;20213;-63
2020/12/01 07:47:13;;;;;;;2.67;1.20;;;2.20;99.90;;;;;;5033304;28;20647;-63
2020/12/01 07:49:38;;;;;;;4.82;1.02;;;2.20;99.90;;;;;;5030754;28;20225;-63
2020/12/01 07:52:44;;;;;;;2.57;0.73;;;2.20;99.90;;;;;;5030910;28;20187;-63
2020/12/01 07:55:48;;;;;;;3.30;2.28;;;2.20;99.90;;;;;;5036035;28;20201;-62
2020/12/01 07:58:16;;;;;;;1.70;0.20;;;2.20;99.90;;;;;;4959725;28;20196;-63
2020/12/01 08:00:47;;;;;;;6.40;4.50;;;2.20;99.90;;;;;;4951868;28;20201;-64
2020/12/01 08:03:15;;;;;;;7.80;5.07;;;2.20;99.90;;;;;;4996416;28;20205;-63
2020/12/01 08:05:41;;;;;;;10.35;5.70;;;2.20;99.90;;;;;;5041057;28;20174;-63
2020/12/01 08:08:13;;;;;;;5.20;4.83;;;2.20;99.90;;;;;;5037813;28;20231;-63
2020/12/01 08:10:39;;;;;;;5.50;3.70;;;2.20;99.90;;;;;;5030718;28;20202;-63
2020/12/01 08:13:05;;;;;;;8.45;4.75;;;2.20;99.90;;;;;;5040946;28;20224;-63
2020/12/01 08:15:32;;;;;;;2.33;1.40;;;2.30;99.90;;;;;;5036912;28;20197;-63
2020/12/01 08:18:05;;;;;;;2.72;0.98;;;2.30;99.90;;;;;;5038012;28;20185;-63
2020/12/01 08:20:32;;;;;;;4.30;1.70;;;2.30;99.90;;;;;;5035236;28;20202;-62
2020/12/01 08:23:20;;;;;;;3.95;1.42;;;2.30;99.90;;;;;;5029006;28;20178;-63
2020/12/01 08:25:57;;;;;;;7.00;3.92;;;2.30;99.90;;;;;;5034498;28;20783;-63
2020/12/01 08:28:36;;;;;;;2.28;1.42;;;2.30;99.90;;;;;;5033468;28;20189;-63
2020/12/01 08:31:28;;;;;;;8.77;2.65;;;2.30;99.90;;;;;;5034822;28;20185;-63
2020/12/01 08:34:17;;;;;;;1.80;0.47;;;2.30;99.90;;;;;;5039339;28;20185;-63
2020/12/01 08:37:04;;;;;;;1.75;0.20;;;2.30;99.90;;;;;;5035600;28;20200;-64
2020/12/01 08:39:55;;;;;;;1.77;0.20;;;2.40;99.90;;;;;;5033003;28;20245;-64
2020/12/01 08:42:51;;;;;;;1.70;0.20;;;2.50;99.90;;;;;;5035313;28;20186;-63
2020/12/01 08:45:35;;;;;;;2.25;1.00;;;2.60;99.90;;;;;;5033883;28;20285;-64
2020/12/01 08:48:04;;;;;;;1.80;0.40;;;2.50;99.90;;;;;;5033226;28;20189;-64
2020/12/01 08:50:37;;;;;;;2.33;0.93;;;2.50;99.90;;;;;;5033831;28;20225;-63
2020/12/01 08:53:18;;;;;;;1.73;0.20;;;2.60;99.90;;;;;;5034316;28;20200;-63
2020/12/01 08:55:55;;;;;;;1.77;0.35;;;2.60;99.90;;;;;;5035733;28;20200;-63
2020/12/01 08:58:28;;;;;;;1.70;0.20;;;2.60;99.90;;;;;;5032879;28;20216;-63
2020/12/01 09:01:07;;;;;;;7.72;2.40;;;2.50;99.90;;;;;;5033666;28;20297;-64
2020/12/01 09:03:34;;;;;;;1.73;0.20;;;2.60;99.90;;;;;;5033346;28;20720;-63
2020/12/01 09:06:01;;;;;;;1.70;0.20;;;2.70;99.90;;;;;;5033210;28;20216;-63
2020/12/01 09:14:48;;;;;;;4.72;1.70;;;2.80;99.90;;;;;;5030036;28;20193;-63
2020/12/01 09:17:34;;;;;;;1.75;0.20;;;2.80;99.90;;;;;;5040832;28;20198;-64
2020/12/01 09:23:12;;;;;;;1.73;0.20;;;2.70;99.90;;;;;;5027306;28;20281;-64
2020/12/01 09:25:39;;;;;;;1.73;0.30;;;2.80;99.90;;;;;;5032761;28;20693;-63
2020/12/01 09:28:15;;;;;;;1.73;0.20;;;2.80;99.90;;;;;;5029619;28;20486;-63
2020/12/01 09:30:42;;;;;;;1.70;0.20;;;2.80;99.90;;;;;;5035681;28;20197;-63
2020/12/01 09:33:12;;;;;;;1.70;0.20;;;2.90;99.90;;;;;;5033019;28;20190;-63
2020/12/01 09:35:39;;;;;;;3.47;1.83;;;2.90;99.90;;;;;;5036146;28;20244;-63
2020/12/01 09:38:05;;;;;;;12.02;5.55;;;3.00;99.90;;;;;;5033782;28;20185;-64
2020/12/01 09:40:33;;;;;;;1.90;0.52;;;2.90;99.90;;;;;;5031621;28;20189;-63
2020/12/01 09:43:08;;;;;;;8.05;4.70;;;2.90;99.90;;;;;;5033578;28;20206;-63
2020/12/01 09:45:37;;;;;;;4.20;2.63;;;2.90;99.90;;;;;;5033888;28;20205;-63
2020/12/01 09:48:12;;;;;;;18.38;17.33;;;2.90;99.90;;;;;;5034683;28;20187;-62
2020/12/01 09:50:39;;;;;;;2.97;1.38;;;2.90;99.90;;;;;;5037741;28;20223;-63
2020/12/01 10:14:19;;;;;;;6.05;3.63;;;3.00;99.90;;;;;;5028580;28;20188;-62
2020/12/01 10:17:56;;;;;;;1.73;0.20;;;3.00;99.90;;;;;;5039619;28;20189;-64
2020/12/01 10:35:35;;;;;;;18.13;9.23;;;3.10;99.90;;;;;;5030416;28;20208;-64
2020/12/01 10:38:02;;;;;;;2.47;0.70;;;3.10;99.90;;;;;;5031328;28;20568;-64
2020/12/01 10:40:28;;;;;;;1.90;0.63;;;3.10;99.90;;;;;;5031456;28;20237;-64
2020/12/01 10:42:55;;;;;;;8.02;4.45;;;3.00;99.90;;;;;;5026121;28;20269;-64
2020/12/01 10:45:23;;;;;;;9.82;6.32;;;3.10;99.90;;;;;;5031180;28;20289;-64
2020/12/01 10:47:49;;;;;;;1.70;0.20;;;3.10;99.90;;;;;;5031917;28;20204;-64
2020/12/01 10:50:18;;;;;;;1.90;0.67;;;3.10;99.90;;;;;;5031089;28;20233;-64
2020/12/01 10:52:44;;;;;;;3.22;1.52;;;3.20;99.90;;;;;;5033310;28;20188;-65
2020/12/01 10:55:14;;;;;;;12.30;6.30;;;3.20;99.90;;;;;;5044544;28;20221;-65
2020/12/01 10:57:40;;;;;;;3.70;1.00;;;3.20;99.90;;;;;;5042028;28;20181;-65
2020/12/01 11:00:11;;;;;;;9.70;6.53;;;3.10;99.90;;;;;;5041754;28;20226;-65
2020/12/01 11:02:37;;;;;;;1.70;0.20;;;3.10;99.90;;;;;;5037039;28;20676;-65
2020/12/01 11:05:07;;;;;;;1.80;0.43;;;3.10;99.90;;;;;;5026746;28;20235;-65
2020/12/01 11:07:33;;;;;;;1.73;0.20;;;3.20;99.90;;;;;;5034483;28;20724;-65
2020/12/01 11:09:59;;;;;;;2.27;0.70;;;3.30;99.90;;;;;;5030537;28;20237;-65
2020/12/01 11:12:24;;;;;;;1.70;0.20;;;3.20;99.90;;;;;;5034474;28;20182;-65
2020/12/01 11:14:50;;;;;;;2.47;0.57;;;3.20;99.90;;;;;;5032690;28;20185;-65
2020/12/01 11:17:16;;;;;;;1.70;0.20;;;3.30;99.90;;;;;;5038374;28;20190;-65
2020/12/01 11:19:41;;;;;;;4.33;2.67;;;3.20;99.90;;;;;;5032981;28;20206;-65
2020/12/01 11:22:09;;;;;;;1.70;0.20;;;3.30;99.90;;;;;;5030519;28;20194;-66
2020/12/01 11:24:35;;;;;;;1.70;0.20;;;3.20;99.90;;;;;;5022822;28;20201;-65
2020/12/01 11:27:00;;;;;;;1.70;0.20;;;3.20;99.90;;;;;;5050478;28;20166;-63
2020/12/01 11:29:26;;;;;;;1.70;0.20;;;3.30;99.90;;;;;;5053779;28;20265;-65
2020/12/01 11:31:51;;;;;;;1.70;0.20;;;3.40;99.90;;;;;;5041358;28;20561;-65
2020/12/01 11:34:17;;;;;;;7.50;2.23;;;3.40;99.90;;;;;;5045621;28;20189;-65
2020/12/01 11:36:43;;;;;;;1.70;0.20;;;3.30;99.90;;;;;;5048837;28;20193;-65
2020/12/01 11:39:11;;;;;;;6.83;3.73;;;3.30;99.90;;;;;;5032055;28;20225;-64
2020/12/01 11:41:37;;;;;;;1.73;0.30;;;3.20;99.90;;;;;;5031225;28;20210;-65
2020/12/01 11:44:04;;;;;;;1.80;0.20;;;3.20;99.90;;;;;;5030636;28;20244;-65
2020/12/01 11:46:30;;;;;;;1.70;0.20;;;3.30;99.90;;;;;;5029106;28;20182;-65
2020/12/01 11:49:01;;;;;;;1.70;0.20;;;3.40;99.90;;;;;;5034401;28;20699;-64
2020/12/01 11:51:29;;;;;;;1.70;0.20;;;3.40;99.90;;;;;;5031712;28;20479;-64
2020/12/01 11:53:54;;;;;;;9.70;4.03;;;3.50;99.90;;;;;;5034069;28;20189;-65
2020/12/01 11:56:20;;;;;;;3.13;1.23;;;3.50;99.90;;;;;;5034212;28;20541;-65
2020/12/01 11:58:46;;;;;;;1.90;0.60;;;3.40;99.90;;;;;;5033501;28;20701;-64
2020/12/01 12:01:11;;;;;;;1.70;0.20;;;3.30;99.90;;;;;;5035484;28;20186;-64
2020/12/01 12:03:37;;;;;;;13.53;6.50;;;3.30;99.90;;;;;;5033737;28;20233;-65
2020/12/01 12:06:02;;;;;;;1.80;0.40;;;3.20;99.90;;;;;;5032613;28;20185;-65
2020/12/01 12:08:28;;;;;;;1.70;0.20;;;3.20;99.90;;;;;;5036569;28;20259;-64
2020/12/01 12:10:54;;;;;;;3.40;1.03;;;3.20;99.90;;;;;;5033644;28;20182;-66
2020/12/01 12:13:20;;;;;;;1.70;0.20;;;3.30;99.90;;;;;;5036010;28;20186;-65
2020/12/01 12:15:45;;;;;;;1.73;0.20;;;3.30;99.90;;;;;;5034995;28;20182;-63
2020/12/01 12:18:11;;;;;;;1.70;0.20;;;3.30;99.90;;;;;;5031166;28;20471;-64
2020/12/01 12:20:37;;;;;;;1.70;0.20;;;3.30;99.90;;;;;;5030933;28;20281;-64
2020/12/01 12:23:03;;;;;;;1.77;0.35;;;3.40;99.90;;;;;;5032913;28;20239;-64
2020/12/01 12:25:29;;;;;;;2.30;1.20;;;3.50;99.90;;;;;;5031141;28;20205;-64
2020/12/01 12:27:55;;;;;;;2.27;1.43;;;3.50;99.90;;;;;;5033247;28;20463;-64
2020/12/01 12:30:20;;;;;;;2.63;1.63;;;3.50;99.90;;;;;;5031172;28;20214;-64
2020/12/01 12:32:46;;;;;;;1.90;0.70;;;3.50;99.90;;;;;;5033635;28;20186;-64
2020/12/01 12:35:11;;;;;;;2.40;1.03;;;3.50;99.90;;;;;;5044033;28;20212;-66
2020/12/01 12:37:37;;;;;;;1.70;0.20;;;3.50;99.90;;;;;;5030817;28;20248;-66
2020/12/01 12:40:05;;;;;;;1.70;0.20;;;3.50;99.90;;;;;;5035463;28;20226;-66
2020/12/01 12:42:31;;;;;;;1.70;0.20;;;3.50;99.90;;;;;;5045389;28;20189;-65
2020/12/01 12:44:56;;;;;;;1.70;0.20;;;3.60;99.90;;;;;;5035336;28;20304;-65
2020/12/01 12:47:22;;;;;;;1.70;0.20;;;3.60;99.90;;;;;;5034581;28;20208;-67
2020/12/01 12:49:48;;;;;;;1.70;0.20;;;3.60;99.90;;;;;;5033837;28;20356;-67
2020/12/01 12:52:13;;;;;;;1.80;0.20;;;3.70;99.90;;;;;;5032328;28;20178;-68
2020/12/01 12:54:39;;;;;;;1.70;0.20;;;3.70;99.90;;;;;;5033486;28;20217;-67
2020/12/01 12:57:05;;;;;;;1.80;0.20;;;3.80;99.90;;;;;;5039805;23;20230;-61
2020/12/01 12:59:30;;;;;;;1.77;0.20;;;3.80;99.90;;;;;;5014572;28;20798;-62
2020/12/01 13:01:56;;;;;;;1.70;0.20;;;3.90;99.90;;;;;;5009634;28;20437;-65
2020/12/01 13:04:22;;;;;;;2.97;1.77;;;3.80;99.90;;;;;;5032464;28;20210;-62
2020/12/01 13:06:48;;;;;;;5.10;2.57;;;3.70;99.90;;;;;;5011782;28;20453;-62
2020/12/01 13:09:14;;;;;;;1.80;0.50;;;3.70;99.90;;;;;;5014170;28;20229;-62
2020/12/01 13:11:39;;;;;;;1.70;0.20;;;3.60;99.90;;;;;;5012287;28;20651;-62
2020/12/01 13:14:05;;;;;;;1.70;0.20;;;3.60;99.90;;;;;;5010875;28;20503;-64
2020/12/01 13:16:31;;;;;;;2.13;1.33;;;3.60;99.90;;;;;;5033599;28;20210;-62
2020/12/01 13:18:56;;;;;;;1.70;0.20;;;3.60;99.90;;;;;;5011071;28;20282;-63
2020/12/01 13:21:22;;;;;;;1.70;0.20;;;3.70;99.90;;;;;;5011409;28;20607;-62
2020/12/01 13:23:48;;;;;;;2.00;0.50;;;3.70;99.90;;;;;;5016937;28;20443;-62
2020/12/01 13:26:18;;;;;;;1.70;0.20;;;3.70;99.90;;;;;;5006177;28;20282;-62
2020/12/01 13:28:44;;;;;;;9.90;5.45;;;3.80;99.90;;;;;;5009473;28;20433;-62
2020/12/01 13:31:09;;;;;;;2.73;1.17;;;3.70;99.90;;;;;;5011981;28;20186;-62
2020/12/01 13:33:35;;;;;;;1.70;0.20;;;3.70;99.90;;;;;;5016139;28;20186;-62
2020/12/01 13:36:01;;;;;;;1.70;0.20;;;3.70;99.90;;;;;;5013189;28;20207;-67
2020/12/01 13:38:26;;;;;;;2.17;0.70;;;3.70;99.90;;;;;;5024217;28;20541;-62
2020/12/01 13:40:52;;;;;;;6.33;5.07;;;3.70;99.90;;;;;;5006943;28;20183;-62
2020/12/01 13:43:17;;;;;;;2.20;0.70;;;3.70;99.90;;;;;;5012990;28;20202;-62
2020/12/01 13:45:43;;;;;;;1.70;0.20;;;3.70;99.90;;;;;;5009777;28;20217;-62
2020/12/01 13:48:09;;;;;;;1.73;0.20;;;3.70;99.90;;;;;;5011982;28;20660;-62
2020/12/01 13:50:35;;;;;;;2.70;1.90;;;3.80;99.90;;;;;;5008799;28;20190;-62
2020/12/01 13:53:00;;;;;;;1.70;0.20;;;3.80;99.90;;;;;;5007570;28;20185;-62
2020/12/01 13:55:26;;;;;;;5.60;1.90;;;3.80;99.90;;;;;;5010813;28;20186;-62
2020/12/01 13:57:52;;;;;;;2.37;1.20;;;3.80;99.90;;;;;;5012505;28;20218;-62
2020/12/01 14:00:28;;;;;;;1.92;0.50;;;3.80;99.90;;;;;;5008049;28;20504;-62
2020/12/01 14:02:55;;;;;;;1.77;0.30;;;3.70;99.90;;;;;;5011431;28;20182;-62